sensor_id;sensor_type;location;lat;lon;timestamp;pressure;altitude;pressure_sealevel;temperature;humidity
11347;BME280;5728;42.722;23.258;2023-04-01T00:01:27;93895.16;;;10.98;70.33
11347;BME280;5728;42.722;23.258;2023-04-01T00:03:54;93891.59;;;11.02;71.19
11347;BME280;5728;42.722;23.258;2023-04-01T00:06:23;93895.59;;;10.84;72.14
11347;BME280;5728;42.722;23.258;2023-04-01T00:08:50;93895.00;;;11.30;70.26
11347;BME280;5728;42.722;23.258;2023-04-01T00:11:18;93901.03;;;11.30;70.67
11347;BME280;5728;42.722;23.258;2023-04-01T00:13:45;93899.19;;;11.34;70.47
11347;BME280;5728;42.722;23.258;2023-04-01T00:16:12;93901.84;;;11.59;69.59
11347;BME280;5728;42.722;23.258;2023-04-01T00:18:39;93893.94;;;11.62;69.27
11347;BME280;5728;42.722;23.258;2023-04-01T00:21:07;93894.19;;;11.54;69.84
11347;BME280;5728;42.722;23.258;2023-04-01T00:23:35;93887.47;;;11.48;69.91
11347;BME280;5728;42.722;23.258;2023-04-01T00:26:03;93888.31;;;11.49;70.21
11347;BME280;5728;42.722;23.258;2023-04-01T00:28:31;93878.56;;;11.55;69.52
11347;BME280;5728;42.722;23.258;2023-04-01T00:30:57;93885.31;;;11.61;69.61
11347;BME280;5728;42.722;23.258;2023-04-01T00:33:24;93889.59;;;11.62;69.63
11347;BME280;5728;42.722;23.258;2023-04-01T00:35:52;93892.00;;;11.68;69.73
11347;BME280;5728;42.722;23.258;2023-04-01T00:38:19;93881.75;;;11.64;70.13
11347;BME280;5728;42.722;23.258;2023-04-01T00:40:47;93870.41;;;11.66;69.76
11347;BME280;5728;42.722;23.258;2023-04-01T00:43:16;93863.97;;;11.27;70.61
11347;BME280;5728;42.722;23.258;2023-04-01T00:45:45;93857.19;;;10.95;71.59
11347;BME280;5728;42.722;23.258;2023-04-01T00:48:15;93858.66;;;11.04;71.44
11347;BME280;5728;42.722;23.258;2023-04-01T00:50:45;93851.06;;;10.98;72.05
11347;BME280;5728;42.722;23.258;2023-04-01T00:53:13;93843.19;;;11.27;71.53
11347;BME280;5728;42.722;23.258;2023-04-01T00:55:45;93838.78;;;11.03;71.79
11347;BME280;5728;42.722;23.258;2023-04-01T00:58:18;93844.69;;;10.80;71.78
11347;BME280;5728;42.722;23.258;2023-04-01T01:00:48;93828.81;;;10.90;71.97
11347;BME280;5728;42.722;23.258;2023-04-01T01:03:17;93831.94;;;10.74;71.71
11347;BME280;5728;42.722;23.258;2023-04-01T01:06:06;93820.38;;;10.29;74.83
11347;BME280;5728;42.722;23.258;2023-04-01T01:08:43;93810.28;;;10.47;73.72
11347;BME280;5728;42.722;23.258;2023-04-01T01:11:14;93833.28;;;10.59;74.09
11347;BME280;5728;42.722;23.258;2023-04-01T01:13:50;93811.69;;;10.59;73.82
11347;BME280;5728;42.722;23.258;2023-04-01T01:16:26;93817.56;;;10.36;74.47
11347;BME280;5728;42.722;23.258;2023-04-01T01:18:56;93812.66;;;9.96;76.13
11347;BME280;5728;42.722;23.258;2023-04-01T01:22:04;93807.22;;;10.05;76.49
11347;BME280;5728;42.722;23.258;2023-04-01T01:24:53;93790.22;;;9.95;76.83
11347;BME280;5728;42.722;23.258;2023-04-01T01:27:21;93776.84;;;10.12;76.51
11347;BME280;5728;42.722;23.258;2023-04-01T01:33:09;93787.94;;;10.15;76.08
11347;BME280;5728;42.722;23.258;2023-04-01T01:35:43;93784.38;;;10.47;75.63
11347;BME280;5728;42.722;23.258;2023-04-01T01:38:14;93795.75;;;10.43;75.47
11347;BME280;5728;42.722;23.258;2023-04-01T01:40:43;93787.09;;;10.44;75.43
11347;BME280;5728;42.722;23.258;2023-04-01T01:43:14;93790.78;;;10.63;74.65
11347;BME280;5728;42.722;23.258;2023-04-01T01:45:46;93787.72;;;10.78;74.13
11347;BME280;5728;42.722;23.258;2023-04-01T01:48:14;93787.00;;;10.73;74.18
11347;BME280;5728;42.722;23.258;2023-04-01T01:50:44;93798.28;;;10.99;73.73
11347;BME280;5728;42.722;23.258;2023-04-01T01:53:12;93781.06;;;10.70;74.09
11347;BME280;5728;42.722;23.258;2023-04-01T01:55:41;93787.00;;;10.73;74.05
11347;BME280;5728;42.722;23.258;2023-04-01T01:58:12;93795.81;;;10.69;74.67
11347;BME280;5728;42.722;23.258;2023-04-01T02:00:43;93788.22;;;10.89;74.30
11347;BME280;5728;42.722;23.258;2023-04-01T02:03:13;93780.84;;;11.04;72.99
11347;BME280;5728;42.722;23.258;2023-04-01T02:05:40;93770.03;;;11.16;72.50
11347;BME280;5728;42.722;23.258;2023-04-01T02:08:12;93761.56;;;11.11;72.99
11347;BME280;5728;42.722;23.258;2023-04-01T02:10:45;93758.38;;;11.03;73.11
11347;BME280;5728;42.722;23.258;2023-04-01T02:13:19;93759.19;;;11.05;73.13
11347;BME280;5728;42.722;23.258;2023-04-01T02:15:50;93772.66;;;10.89;73.62
11347;BME280;5728;42.722;23.258;2023-04-01T02:18:21;93761.53;;;10.86;74.09
11347;BME280;5728;42.722;23.258;2023-04-01T02:20:49;93766.06;;;11.06;73.76
11347;BME280;5728;42.722;23.258;2023-04-01T02:23:17;93757.66;;;11.24;73.14
11347;BME280;5728;42.722;23.258;2023-04-01T02:25:45;93764.84;;;11.16;72.39
11347;BME280;5728;42.722;23.258;2023-04-01T02:28:13;93751.63;;;11.23;73.11
11347;BME280;5728;42.722;23.258;2023-04-01T02:30:45;93763.44;;;11.32;71.90
11347;BME280;5728;42.722;23.258;2023-04-01T02:33:14;93762.84;;;11.24;72.67
11347;BME280;5728;42.722;23.258;2023-04-01T02:35:41;93770.22;;;11.36;71.70
11347;BME280;5728;42.722;23.258;2023-04-01T02:38:08;93774.94;;;11.25;72.27
11347;BME280;5728;42.722;23.258;2023-04-01T02:40:45;93785.06;;;11.06;73.48
11347;BME280;5728;42.722;23.258;2023-04-01T02:43:13;93790.44;;;11.26;72.82
11347;BME280;5728;42.722;23.258;2023-04-01T02:45:40;93783.63;;;10.98;74.09
11347;BME280;5728;42.722;23.258;2023-04-01T02:48:06;93804.78;;;10.85;74.85
11347;BME280;5728;42.722;23.258;2023-04-01T02:50:33;93778.91;;;10.84;74.72
11347;BME280;5728;42.722;23.258;2023-04-01T02:53:00;93798.38;;;10.69;74.70
11347;BME280;5728;42.722;23.258;2023-04-01T02:55:28;93793.91;;;11.01;74.68
11347;BME280;5728;42.722;23.258;2023-04-01T02:57:56;93787.72;;;10.78;74.86
11347;BME280;5728;42.722;23.258;2023-04-01T03:00:24;93798.09;;;10.78;75.07
11347;BME280;5728;42.722;23.258;2023-04-01T03:02:50;93797.56;;;10.67;76.28
11347;BME280;5728;42.722;23.258;2023-04-01T03:05:17;93812.06;;;11.01;75.14
11347;BME280;5728;42.722;23.258;2023-04-01T03:07:44;93807.75;;;10.73;75.96
11347;BME280;5728;42.722;23.258;2023-04-01T03:10:11;93823.41;;;10.70;75.53
11347;BME280;5728;42.722;23.258;2023-04-01T03:12:38;93802.16;;;10.59;76.40
11347;BME280;5728;42.722;23.258;2023-04-01T03:15:08;93802.00;;;10.36;76.82
11347;BME280;5728;42.722;23.258;2023-04-01T03:17:36;93822.88;;;10.32;77.01
11347;BME280;5728;42.722;23.258;2023-04-01T03:20:03;93815.00;;;10.35;77.33
11347;BME280;5728;42.722;23.258;2023-04-01T03:22:30;93809.78;;;10.05;78.66
11347;BME280;5728;42.722;23.258;2023-04-01T03:24:57;93815.69;;;10.10;78.98
11347;BME280;5728;42.722;23.258;2023-04-01T03:27:24;93810.59;;;10.38;78.00
11347;BME280;5728;42.722;23.258;2023-04-01T03:29:50;93810.34;;;10.46;78.07
11347;BME280;5728;42.722;23.258;2023-04-01T03:32:19;93806.34;;;10.63;76.88
11347;BME280;5728;42.722;23.258;2023-04-01T03:34:45;93797.22;;;10.78;76.68
11347;BME280;5728;42.722;23.258;2023-04-01T03:37:12;93792.09;;;10.76;75.95
11347;BME280;5728;42.722;23.258;2023-04-01T03:39:39;93778.22;;;10.77;77.73
11347;BME280;5728;42.722;23.258;2023-04-01T03:42:06;93760.06;;;10.77;77.91
11347;BME280;5728;42.722;23.258;2023-04-01T03:44:33;93747.81;;;10.56;78.43
11347;BME280;5728;42.722;23.258;2023-04-01T03:47:00;93739.88;;;10.61;78.63
11347;BME280;5728;42.722;23.258;2023-04-01T03:49:29;93728.56;;;10.63;78.69
11347;BME280;5728;42.722;23.258;2023-04-01T03:51:57;93722.19;;;10.47;80.30
11347;BME280;5728;42.722;23.258;2023-04-01T03:54:24;93719.69;;;10.70;79.52
11347;BME280;5728;42.722;23.258;2023-04-01T03:56:51;93703.44;;;10.92;78.97
11347;BME280;5728;42.722;23.258;2023-04-01T03:59:17;93700.66;;;10.71;80.05
11347;BME280;5728;42.722;23.258;2023-04-01T04:01:46;93703.34;;;10.68;79.02
11347;BME280;5728;42.722;23.258;2023-04-01T04:04:13;93698.25;;;10.65;78.40
11347;BME280;5728;42.722;23.258;2023-04-01T04:06:41;93693.88;;;10.67;77.93
11347;BME280;5728;42.722;23.258;2023-04-01T04:09:08;93690.19;;;10.48;80.42
11347;BME280;5728;42.722;23.258;2023-04-01T04:11:35;93690.97;;;10.50;79.79
11347;BME280;5728;42.722;23.258;2023-04-01T04:14:02;93688.31;;;10.53;79.51
11347;BME280;5728;42.722;23.258;2023-04-01T04:16:29;93689.41;;;10.46;78.91
11347;BME280;5728;42.722;23.258;2023-04-01T04:18:55;93678.78;;;10.54;79.07
11347;BME280;5728;42.722;23.258;2023-04-01T04:21:22;93674.00;;;10.42;79.43
11347;BME280;5728;42.722;23.258;2023-04-01T04:23:50;93675.94;;;10.35;80.21
11347;BME280;5728;42.722;23.258;2023-04-01T04:26:17;93672.38;;;10.38;79.89
11347;BME280;5728;42.722;23.258;2023-04-01T04:28:44;93653.56;;;10.59;79.40
11347;BME280;5728;42.722;23.258;2023-04-01T04:31:11;93649.75;;;10.44;79.97
11347;BME280;5728;42.722;23.258;2023-04-01T04:33:38;93657.47;;;10.70;79.59
11347;BME280;5728;42.722;23.258;2023-04-01T04:36:05;93645.53;;;10.66;78.43
11347;BME280;5728;42.722;23.258;2023-04-01T04:38:32;93646.69;;;10.82;78.35
11347;BME280;5728;42.722;23.258;2023-04-01T04:41:01;93664.47;;;10.68;76.27
11347;BME280;5728;42.722;23.258;2023-04-01T04:43:27;93649.47;;;10.25;78.96
11347;BME280;5728;42.722;23.258;2023-04-01T04:45:54;93635.91;;;10.17;79.30
11347;BME280;5728;42.722;23.258;2023-04-01T04:48:21;93645.75;;;10.34;78.32
11347;BME280;5728;42.722;23.258;2023-04-01T04:50:49;93645.69;;;10.08;80.97
11347;BME280;5728;42.722;23.258;2023-04-01T04:53:18;93626.16;;;10.25;80.20
11347;BME280;5728;42.722;23.258;2023-04-01T04:55:45;93628.56;;;10.32;78.76
11347;BME280;5728;42.722;23.258;2023-04-01T04:58:14;93633.84;;;10.01;80.94
11347;BME280;5728;42.722;23.258;2023-04-01T05:00:41;93622.25;;;10.12;81.21
11347;BME280;5728;42.722;23.258;2023-04-01T05:03:09;93622.84;;;10.22;80.15
11347;BME280;5728;42.722;23.258;2023-04-01T05:05:36;93624.09;;;10.09;80.51
11347;BME280;5728;42.722;23.258;2023-04-01T05:08:02;93613.38;;;9.93;80.94
11347;BME280;5728;42.722;23.258;2023-04-01T05:10:29;93606.81;;;10.09;80.23
11347;BME280;5728;42.722;23.258;2023-04-01T05:12:56;93606.22;;;10.00;78.97
11347;BME280;5728;42.722;23.258;2023-04-01T05:15:25;93588.81;;;10.05;78.14
11347;BME280;5728;42.722;23.258;2023-04-01T05:17:51;93594.81;;;10.07;78.18
11347;BME280;5728;42.722;23.258;2023-04-01T05:20:18;93587.63;;;9.89;79.69
11347;BME280;5728;42.722;23.258;2023-04-01T05:22:45;93586.66;;;10.19;78.04
11347;BME280;5728;42.722;23.258;2023-04-01T05:25:12;93592.53;;;10.24;78.17
11347;BME280;5728;42.722;23.258;2023-04-01T05:27:39;93592.38;;;10.29;77.45
11347;BME280;5728;42.722;23.258;2023-04-01T05:30:06;93600.50;;;10.44;77.20
11347;BME280;5728;42.722;23.258;2023-04-01T05:32:34;93586.34;;;10.77;76.27
11347;BME280;5728;42.722;23.258;2023-04-01T05:35:02;93597.53;;;11.27;75.21
11347;BME280;5728;42.722;23.258;2023-04-01T05:37:28;93597.00;;;11.18;72.85
11347;BME280;5728;42.722;23.258;2023-04-01T05:39:55;93585.50;;;11.48;73.98
11347;BME280;5728;42.722;23.258;2023-04-01T05:42:23;93581.22;;;11.92;72.45
11347;BME280;5728;42.722;23.258;2023-04-01T05:44:51;93594.38;;;12.31;69.76
11347;BME280;5728;42.722;23.258;2023-04-01T05:47:18;93588.06;;;12.36;68.94
11347;BME280;5728;42.722;23.258;2023-04-01T05:49:46;93571.13;;;12.48;69.76
11347;BME280;5728;42.722;23.258;2023-04-01T05:52:13;93557.38;;;13.05;67.10
11347;BME280;5728;42.722;23.258;2023-04-01T05:54:41;93565.06;;;13.47;66.14
11347;BME280;5728;42.722;23.258;2023-04-01T05:57:08;93566.88;;;13.82;63.90
11347;BME280;5728;42.722;23.258;2023-04-01T05:59:35;93560.22;;;14.12;62.90
11347;BME280;5728;42.722;23.258;2023-04-01T06:02:02;93575.59;;;14.35;61.61
11347;BME280;5728;42.722;23.258;2023-04-01T06:04:33;93582.09;;;14.62;61.04
11347;BME280;5728;42.722;23.258;2023-04-01T06:07:09;93568.19;;;15.29;60.01
11347;BME280;5728;42.722;23.258;2023-04-01T06:09:37;93568.66;;;15.20;58.16
11347;BME280;5728;42.722;23.258;2023-04-01T06:12:26;93569.22;;;15.42;57.47
11347;BME280;5728;42.722;23.258;2023-04-01T06:15:03;93561.53;;;15.39;56.62
11347;BME280;5728;42.722;23.258;2023-04-01T06:17:43;93559.09;;;15.36;56.25
11347;BME280;5728;42.722;23.258;2023-04-01T06:20:20;93567.56;;;15.24;56.44
11347;BME280;5728;42.722;23.258;2023-04-01T06:23:02;93574.44;;;15.42;55.03
11347;BME280;5728;42.722;23.258;2023-04-01T06:25:43;93573.34;;;15.30;55.50
11347;BME280;5728;42.722;23.258;2023-04-01T06:31:22;93568.81;;;14.67;56.01
11347;BME280;5728;42.722;23.258;2023-04-01T06:34:08;93564.34;;;14.86;56.10
11347;BME280;5728;42.722;23.258;2023-04-01T06:36:52;93542.94;;;14.80;55.83
11347;BME280;5728;42.722;23.258;2023-04-01T06:39:31;93550.31;;;14.72;55.85
11347;BME280;5728;42.722;23.258;2023-04-01T06:42:12;93553.66;;;14.91;55.36
11347;BME280;5728;42.722;23.258;2023-04-01T06:44:50;93549.16;;;14.77;55.74
11347;BME280;5728;42.722;23.258;2023-04-01T06:47:32;93541.44;;;14.91;55.72
11347;BME280;5728;42.722;23.258;2023-04-01T06:50:07;93535.78;;;14.66;56.39
11347;BME280;5728;42.722;23.258;2023-04-01T06:52:47;93534.50;;;14.75;55.71
11347;BME280;5728;42.722;23.258;2023-04-01T06:55:26;93521.81;;;14.84;55.08
11347;BME280;5728;42.722;23.258;2023-04-01T06:57:55;93522.34;;;14.74;55.54
11347;BME280;5728;42.722;23.258;2023-04-01T07:00:27;93533.38;;;14.96;55.11
11347;BME280;5728;42.722;23.258;2023-04-01T07:03:01;93530.34;;;14.88;54.74
11347;BME280;5728;42.722;23.258;2023-04-01T07:05:32;93535.91;;;14.47;55.92
11347;BME280;5728;42.722;23.258;2023-04-01T07:08:02;93539.56;;;14.43;56.05
11347;BME280;5728;42.722;23.258;2023-04-01T07:10:35;93523.84;;;14.45;56.56
11347;BME280;5728;42.722;23.258;2023-04-01T07:13:13;93518.25;;;14.52;55.96
11347;BME280;5728;42.722;23.258;2023-04-01T07:15:43;93523.75;;;14.46;56.24
11347;BME280;5728;42.722;23.258;2023-04-01T07:18:15;93531.28;;;14.52;56.90
11347;BME280;5728;42.722;23.258;2023-04-01T07:20:43;93538.94;;;14.55;56.87
11347;BME280;5728;42.722;23.258;2023-04-01T07:23:16;93521.47;;;14.57;57.23
11347;BME280;5728;42.722;23.258;2023-04-01T07:25:52;93526.13;;;14.68;57.05
11347;BME280;5728;42.722;23.258;2023-04-01T07:28:20;93535.25;;;14.77;56.99
11347;BME280;5728;42.722;23.258;2023-04-01T07:30:57;93523.34;;;14.71;57.31
11347;BME280;5728;42.722;23.258;2023-04-01T07:33:52;93521.28;;;14.60;60.46
11347;BME280;5728;42.722;23.258;2023-04-01T07:36:26;93527.13;;;14.65;57.79
11347;BME280;5728;42.722;23.258;2023-04-01T07:39:04;93532.50;;;14.80;57.73
11347;BME280;5728;42.722;23.258;2023-04-01T07:41:43;93524.13;;;15.06;63.20
11347;BME280;5728;42.722;23.258;2023-04-01T07:44:20;93527.25;;;14.97;59.29
11347;BME280;5728;42.722;23.258;2023-04-01T07:46:59;93511.03;;;15.07;57.40
11347;BME280;5728;42.722;23.258;2023-04-01T07:49:36;93520.75;;;14.71;58.21
11347;BME280;5728;42.722;23.258;2023-04-01T07:52:11;93520.22;;;14.82;58.67
11347;BME280;5728;42.722;23.258;2023-04-01T07:54:47;93516.69;;;14.83;58.79
11347;BME280;5728;42.722;23.258;2023-04-01T07:57:20;93518.06;;;14.90;58.75
11347;BME280;5728;42.722;23.258;2023-04-01T07:59:57;93514.84;;;14.50;59.31
11347;BME280;5728;42.722;23.258;2023-04-01T08:02:33;93495.97;;;14.45;60.73
11347;BME280;5728;42.722;23.258;2023-04-01T08:05:11;93504.19;;;14.72;59.56
11347;BME280;5728;42.722;23.258;2023-04-01T08:07:45;93501.28;;;14.44;59.35
11347;BME280;5728;42.722;23.258;2023-04-01T08:10:19;93493.34;;;14.28;60.57
11347;BME280;5728;42.722;23.258;2023-04-01T08:12:58;93491.47;;;14.49;60.42
11347;BME280;5728;42.722;23.258;2023-04-01T08:15:33;93468.50;;;14.73;59.82
11347;BME280;5728;42.722;23.258;2023-04-01T08:18:11;93466.00;;;14.87;59.68
11347;BME280;5728;42.722;23.258;2023-04-01T08:20:47;93462.28;;;14.91;59.86
11347;BME280;5728;42.722;23.258;2023-04-01T08:23:18;93468.19;;;15.27;59.46
11347;BME280;5728;42.722;23.258;2023-04-01T08:25:50;93470.59;;;15.47;58.48
11347;BME280;5728;42.722;23.258;2023-04-01T08:28:24;93459.28;;;15.47;58.28
11347;BME280;5728;42.722;23.258;2023-04-01T08:30:58;93451.94;;;15.84;57.54
11347;BME280;5728;42.722;23.258;2023-04-01T08:33:28;93452.38;;;16.07;56.72
11347;BME280;5728;42.722;23.258;2023-04-01T08:35:59;93442.00;;;16.35;56.62
11347;BME280;5728;42.722;23.258;2023-04-01T08:38:31;93425.66;;;16.89;54.35
11347;BME280;5728;42.722;23.258;2023-04-01T08:41:25;93415.16;;;17.32;53.00
11347;BME280;5728;42.722;23.258;2023-04-01T08:44:16;93403.56;;;18.16;50.93
11347;BME280;5728;42.722;23.258;2023-04-01T08:47:16;93403.88;;;18.76;48.77
11347;BME280;5728;42.722;23.258;2023-04-01T08:50:00;93388.72;;;19.42;46.57
11347;BME280;5728;42.722;23.258;2023-04-01T08:52:35;93386.88;;;19.55;45.02
11347;BME280;5728;42.722;23.258;2023-04-01T08:55:17;93381.75;;;19.78;44.76
11347;BME280;5728;42.722;23.258;2023-04-01T08:57:59;93388.19;;;20.21;42.54
11347;BME280;5728;42.722;23.258;2023-04-01T09:00:36;93394.91;;;20.60;41.17
11347;BME280;5728;42.722;23.258;2023-04-01T09:06:35;93401.50;;;20.07;39.49
11347;BME280;5728;42.722;23.258;2023-04-01T09:09:40;93391.72;;;20.32;40.63
11347;BME280;5728;42.722;23.258;2023-04-01T09:12:31;93398.44;;;20.13;39.88
11347;BME280;5728;42.722;23.258;2023-04-01T09:15:37;93385.97;;;20.04;39.45
11347;BME280;5728;42.722;23.258;2023-04-01T09:18:27;93391.56;;;20.23;38.79
11347;BME280;5728;42.722;23.258;2023-04-01T09:21:23;93392.94;;;20.16;39.50
11347;BME280;5728;42.722;23.258;2023-04-01T09:27:03;93376.06;;;19.84;39.90
11347;BME280;5728;42.722;23.258;2023-04-01T09:29:48;93371.22;;;19.78;39.93
11347;BME280;5728;42.722;23.258;2023-04-01T09:32:46;93367.56;;;19.31;39.86
11347;BME280;5728;42.722;23.258;2023-04-01T09:35:22;93356.81;;;19.10;40.74
11347;BME280;5728;42.722;23.258;2023-04-01T09:37:54;93349.16;;;18.95;40.63
11347;BME280;5728;42.722;23.258;2023-04-01T09:40:32;93350.28;;;19.03;41.08
11347;BME280;5728;42.722;23.258;2023-04-01T09:43:21;93345.38;;;19.48;40.09
11347;BME280;5728;42.722;23.258;2023-04-01T09:46:06;93344.31;;;19.50;40.62
11347;BME280;5728;42.722;23.258;2023-04-01T09:51:37;93326.09;;;19.11;41.08
11347;BME280;5728;42.722;23.258;2023-04-01T09:54:17;93313.69;;;19.49;41.23
11347;BME280;5728;42.722;23.258;2023-04-01T09:57:19;93321.19;;;19.66;40.89
11347;BME280;5728;42.722;23.258;2023-04-01T10:00:27;93323.94;;;19.89;41.10
11347;BME280;5728;42.722;23.258;2023-04-01T10:06:58;93304.44;;;19.20;38.64
11347;BME280;5728;42.722;23.258;2023-04-01T10:15:55;93310.38;;;18.23;38.89
11347;BME280;5728;42.722;23.258;2023-04-01T10:19:08;93298.41;;;18.06;39.73
11347;BME280;5728;42.722;23.258;2023-04-01T10:22:09;93286.44;;;17.90;39.39
11347;BME280;5728;42.722;23.258;2023-04-01T10:28:00;93262.09;;;18.00;39.40
11347;BME280;5728;42.722;23.258;2023-04-01T10:30:50;93258.53;;;18.01;39.10
11347;BME280;5728;42.722;23.258;2023-04-01T10:36:51;93249.72;;;17.77;39.66
11347;BME280;5728;42.722;23.258;2023-04-01T10:52:35;93244.50;;;18.27;41.35
11347;BME280;5728;42.722;23.258;2023-04-01T10:55:24;93236.81;;;18.37;41.83
11347;BME280;5728;42.722;23.258;2023-04-01T10:58:22;93239.25;;;18.15;41.56
11347;BME280;5728;42.722;23.258;2023-04-01T11:01:12;93228.53;;;18.05;43.28
11347;BME280;5728;42.722;23.258;2023-04-01T11:07:20;93230.19;;;17.68;44.52
11347;BME280;5728;42.722;23.258;2023-04-01T11:10:25;93234.72;;;17.79;43.83
11347;BME280;5728;42.722;23.258;2023-04-01T11:13:21;93230.28;;;17.28;45.16
11347;BME280;5728;42.722;23.258;2023-04-01T11:16:24;93239.84;;;17.41;45.23
11347;BME280;5728;42.722;23.258;2023-04-01T11:22:36;93252.81;;;17.57;44.08
11347;BME280;5728;42.722;23.258;2023-04-01T11:25:29;93274.97;;;17.39;44.37
11347;BME280;5728;42.722;23.258;2023-04-01T11:28:28;93273.41;;;17.22;45.26
11347;BME280;5728;42.722;23.258;2023-04-01T11:31:14;93294.19;;;16.98;47.03
11347;BME280;5728;42.722;23.258;2023-04-01T11:33:50;93325.59;;;16.42;49.68
11347;BME280;5728;42.722;23.258;2023-04-01T11:36:32;93348.50;;;15.94;55.13
11347;BME280;5728;42.722;23.258;2023-04-01T11:39:14;93407.09;;;15.29;61.18
11347;BME280;5728;42.722;23.258;2023-04-01T11:41:52;93412.91;;;14.21;68.71
11347;BME280;5728;42.722;23.258;2023-04-01T11:44:24;93443.50;;;12.91;78.54
11347;BME280;5728;42.722;23.258;2023-04-01T11:47:13;93457.06;;;12.40;83.94
11347;BME280;5728;42.722;23.258;2023-04-01T11:49:52;93454.81;;;12.12;83.60
11347;BME280;5728;42.722;23.258;2023-04-01T11:52:35;93457.53;;;12.30;83.53
11347;BME280;5728;42.722;23.258;2023-04-01T11:55:21;93472.59;;;12.22;83.64
11347;BME280;5728;42.722;23.258;2023-04-01T11:58:19;93478.84;;;12.18;85.94
11347;BME280;5728;42.722;23.258;2023-04-01T12:01:04;93480.66;;;12.15;87.08
11347;BME280;5728;42.722;23.258;2023-04-01T12:06:35;93482.84;;;12.04;90.12
11347;BME280;5728;42.722;23.258;2023-04-01T12:09:14;93470.59;;;12.28;91.06
11347;BME280;5728;42.722;23.258;2023-04-01T12:11:50;93465.88;;;12.16;92.71
11347;BME280;5728;42.722;23.258;2023-04-01T12:14:23;93471.59;;;12.04;94.14
11347;BME280;5728;42.722;23.258;2023-04-01T12:17:03;93458.63;;;12.24;93.83
11347;BME280;5728;42.722;23.258;2023-04-01T12:19:41;93458.16;;;12.14;95.62
11347;BME280;5728;42.722;23.258;2023-04-01T12:22:33;93464.13;;;12.16;96.05
11347;BME280;5728;42.722;23.258;2023-04-01T12:25:17;93470.91;;;12.00;96.81
11347;BME280;5728;42.722;23.258;2023-04-01T12:27:59;93481.00;;;11.86;98.15
11347;BME280;5728;42.722;23.258;2023-04-01T12:30:48;93471.38;;;11.88;100.00
11347;BME280;5728;42.722;23.258;2023-04-01T12:36:30;93480.75;;;11.92;99.64
11347;BME280;5728;42.722;23.258;2023-04-01T12:39:17;93469.72;;;11.87;99.17
11347;BME280;5728;42.722;23.258;2023-04-01T12:41:55;93472.34;;;11.86;98.77
11347;BME280;5728;42.722;23.258;2023-04-01T12:44:41;93475.28;;;11.78;97.20
11347;BME280;5728;42.722;23.258;2023-04-01T12:50:38;93455.63;;;11.73;99.65
11347;BME280;5728;42.722;23.258;2023-04-01T12:53:25;93435.50;;;11.98;99.46
11347;BME280;5728;42.722;23.258;2023-04-01T12:55:59;93419.19;;;12.14;98.53
11347;BME280;5728;42.722;23.258;2023-04-01T12:58:55;93427.53;;;12.02;97.30
11347;BME280;5728;42.722;23.258;2023-04-01T13:01:46;93417.56;;;12.12;96.58
11347;BME280;5728;42.722;23.258;2023-04-01T13:04:42;93432.41;;;12.49;96.12
11347;BME280;5728;42.722;23.258;2023-04-01T13:07:22;93426.09;;;12.54;95.64
11347;BME280;5728;42.722;23.258;2023-04-01T13:09:57;93434.84;;;12.72;94.64
11347;BME280;5728;42.722;23.258;2023-04-01T13:12:51;93419.94;;;12.94;94.74
11347;BME280;5728;42.722;23.258;2023-04-01T13:15:29;93426.25;;;13.09;93.10
11347;BME280;5728;42.722;23.258;2023-04-01T13:18:05;93401.88;;;13.28;93.38
11347;BME280;5728;42.722;23.258;2023-04-01T13:20:44;93403.13;;;13.38;96.00
11347;BME280;5728;42.722;23.258;2023-04-01T13:23:27;93402.19;;;13.39;91.58
11347;BME280;5728;42.722;23.258;2023-04-01T13:26:03;93387.44;;;12.84;85.83
11347;BME280;5728;42.722;23.258;2023-04-01T13:28:37;93391.56;;;13.08;90.19
11347;BME280;5728;42.722;23.258;2023-04-01T13:31:09;93376.00;;;13.42;83.10
11347;BME280;5728;42.722;23.258;2023-04-01T13:33:45;93371.22;;;13.86;82.69
11347;BME280;5728;42.722;23.258;2023-04-01T13:36:21;93363.44;;;14.69;84.71
11347;BME280;5728;42.722;23.258;2023-04-01T13:39:05;93345.22;;;15.61;82.82
11347;BME280;5728;42.722;23.258;2023-04-01T13:41:45;93331.34;;;15.90;79.27
11347;BME280;5728;42.722;23.258;2023-04-01T13:44:20;93330.44;;;15.46;77.86
11347;BME280;5728;42.722;23.258;2023-04-01T13:47:08;93330.91;;;16.12;74.61
11347;BME280;5728;42.722;23.258;2023-04-01T13:53:11;93321.13;;;16.16;69.39
11347;BME280;5728;42.722;23.258;2023-04-01T13:55:49;93306.22;;;17.42;68.19
11347;BME280;5728;42.722;23.258;2023-04-01T13:58:55;93301.91;;;17.14;65.48
11347;BME280;5728;42.722;23.258;2023-04-01T14:01:31;93302.81;;;18.06;63.36
11347;BME280;5728;42.722;23.258;2023-04-01T14:04:14;93301.38;;;16.95;63.69
11347;BME280;5728;42.722;23.258;2023-04-01T14:06:54;93299.97;;;17.03;66.41
11347;BME280;5728;42.722;23.258;2023-04-01T14:09:40;93299.81;;;16.78;65.11
11347;BME280;5728;42.722;23.258;2023-04-01T14:12:15;93296.88;;;16.97;63.44
11347;BME280;5728;42.722;23.258;2023-04-01T14:14:56;93294.59;;;17.19;60.59
11347;BME280;5728;42.722;23.258;2023-04-01T14:17:42;93290.88;;;18.14;60.09
11347;BME280;5728;42.722;23.258;2023-04-01T14:20:23;93292.16;;;18.46;60.63
11347;BME280;5728;42.722;23.258;2023-04-01T14:26:11;93289.81;;;17.92;53.29
11347;BME280;5728;42.722;23.258;2023-04-01T14:28:49;93276.59;;;18.43;52.52
11347;BME280;5728;42.722;23.258;2023-04-01T14:31:34;93265.16;;;18.19;51.89
11347;BME280;5728;42.722;23.258;2023-04-01T14:34:15;93268.41;;;18.61;51.28
11347;BME280;5728;42.722;23.258;2023-04-01T14:37:03;93273.50;;;19.24;53.38
11347;BME280;5728;42.722;23.258;2023-04-01T14:39:43;93267.16;;;19.62;50.69
11347;BME280;5728;42.722;23.258;2023-04-01T14:42:29;93266.56;;;19.94;56.56
11347;BME280;5728;42.722;23.258;2023-04-01T14:45:45;93274.84;;;20.11;57.41
11347;BME280;5728;42.722;23.258;2023-04-01T14:48:23;93269.31;;;20.03;57.21
11347;BME280;5728;42.722;23.258;2023-04-01T14:50:53;93273.78;;;20.14;57.60
11347;BME280;5728;42.722;23.258;2023-04-01T14:53:28;93264.50;;;20.32;56.32